createdAt,value
2022-11-23T00:01:40.832Z,89.72
2022-11-23T00:04:10.118Z,90.08
2022-11-23T00:06:36.985Z,89.90
2022-11-23T00:09:04.649Z,90.04
2022-11-23T00:11:34.549Z,89.72
2022-11-23T00:14:01.162Z,90.06
2022-11-23T00:16:29.732Z,89.93
2022-11-23T00:18:58.360Z,89.91
2022-11-23T00:21:26.818Z,89.75
2022-11-23T00:23:53.654Z,90.22
2022-11-23T00:26:20.686Z,89.94
2022-11-23T00:28:48.821Z,89.70
2022-11-23T00:31:17.733Z,89.62
2022-11-23T00:33:48.820Z,89.81
2022-11-23T00:36:16.481Z,90.17
2022-11-23T00:38:43.990Z,90.02
2022-11-23T00:41:12.986Z,89.79
2022-11-23T00:43:39.661Z,90.41
2022-11-23T00:46:10.125Z,90.34
2022-11-23T00:48:37.103Z,90.43
2022-11-23T00:51:05.623Z,89.78
2022-11-23T00:53:32.272Z,90.14
2022-11-23T00:55:58.980Z,89.83
2022-11-23T00:58:26.186Z,90.08
2022-11-23T01:01:01.036Z,89.62
2022-11-23T01:03:30.562Z,90.09
2022-11-23T01:06:02.100Z,89.90
2022-11-23T01:08:28.688Z,89.90
2022-11-23T01:10:58.978Z,89.88
2022-11-23T01:13:25.551Z,89.85
2022-11-23T01:15:52.234Z,89.85
2022-11-23T01:18:18.896Z,89.89
2022-11-23T01:20:46.818Z,90.41
2022-11-23T01:23:13.396Z,90.38
2022-11-23T01:25:40.178Z,90.23
2022-11-23T01:28:07.005Z,90.13
2022-11-23T01:30:33.844Z,90.11
2022-11-23T01:33:00.656Z,90.00
2022-11-23T01:35:28.253Z,89.83
2022-11-23T01:37:56.459Z,90.12
2022-11-23T01:40:23.184Z,90.37
2022-11-23T01:42:54.128Z,89.87
2022-11-23T01:45:39.319Z,90.10
2022-11-23T01:48:11.349Z,90.65
2022-11-23T01:50:38.683Z,90.46
2022-11-23T01:53:06.760Z,90.28
2022-11-23T01:55:34.703Z,90.57
2022-11-23T01:58:01.985Z,90.22
2022-11-23T02:00:29.130Z,90.57
2022-11-23T02:02:58.509Z,90.48
2022-11-23T02:05:30.546Z,90.72
2022-11-23T02:07:59.351Z,90.71
2022-11-23T02:10:29.386Z,90.25
2022-11-23T02:12:56.064Z,90.51
2022-11-23T02:15:22.768Z,90.48
2022-11-23T02:17:49.450Z,90.68
2022-11-23T02:20:18.425Z,90.47
2022-11-23T02:23:05.912Z,90.76
2022-11-23T02:25:40.844Z,90.49
2022-11-23T02:28:09.530Z,90.30
2022-11-23T02:30:36.790Z,90.71
2022-11-23T02:33:04.345Z,90.67
2022-11-23T02:35:30.992Z,90.24
2022-11-23T02:37:58.978Z,90.54
2022-11-23T02:40:28.622Z,89.99
2022-11-23T02:42:55.555Z,90.33
2022-11-23T02:45:35.530Z,89.96
2022-11-23T02:48:02.337Z,90.14
2022-11-23T02:50:29.831Z,90.04
2022-11-23T02:52:56.555Z,89.65
2022-11-23T02:55:23.251Z,89.83
2022-11-23T02:57:49.839Z,89.52
2022-11-23T03:00:17.465Z,89.75
2022-11-23T03:02:45.444Z,89.61
2022-11-23T03:05:12.105Z,89.52
2022-11-23T03:07:38.760Z,89.87
2022-11-23T03:10:06.419Z,89.78
2022-11-23T03:12:33.042Z,89.88
2022-11-23T03:14:59.618Z,89.28
2022-11-23T03:17:26.186Z,89.55
2022-11-23T03:19:54.132Z,89.08
2022-11-23T03:22:20.723Z,89.14
2022-11-23T03:24:47.265Z,89.40
2022-11-23T03:27:13.916Z,88.86
2022-11-23T03:29:40.517Z,89.18
2022-11-23T03:32:07.142Z,88.53
2022-11-23T03:34:33.720Z,88.78
2022-11-23T03:37:01.764Z,88.40
2022-11-23T03:39:28.341Z,88.44
2022-11-23T03:41:54.872Z,88.46
2022-11-23T03:44:21.488Z,88.44
2022-11-23T03:46:48.054Z,88.12
2022-11-23T03:49:14.631Z,88.57
2022-11-23T03:51:41.193Z,88.74
2022-11-23T03:54:09.467Z,88.38
2022-11-23T03:56:36.014Z,88.64
2022-11-23T03:59:02.607Z,89.18
2022-11-23T04:01:29.355Z,88.78
2022-11-23T04:03:55.987Z,88.91
2022-11-23T04:06:22.572Z,88.98
2022-11-23T04:08:49.145Z,88.82
2022-11-23T04:11:17.163Z,89.12
2022-11-23T04:13:43.759Z,88.87
2022-11-23T04:16:10.362Z,88.95
2022-11-23T04:18:36.956Z,88.93
2022-11-23T04:21:03.707Z,89.18
2022-11-23T04:23:30.315Z,88.79
2022-11-23T04:25:56.909Z,88.88
2022-11-23T04:28:24.881Z,88.88
2022-11-23T04:30:51.465Z,89.06
2022-11-23T04:33:18.032Z,88.67
2022-11-23T04:35:44.622Z,88.55
2022-11-23T04:38:11.228Z,88.73
2022-11-23T04:40:37.898Z,88.95
2022-11-23T04:43:04.594Z,88.90
2022-11-23T04:45:32.604Z,89.20
2022-11-23T04:47:59.130Z,88.93
2022-11-23T04:50:25.720Z,88.90
2022-11-23T04:52:52.374Z,89.18
2022-11-23T04:55:18.902Z,89.05
2022-11-23T04:57:45.507Z,88.86
2022-11-23T05:00:13.728Z,88.89
2022-11-23T05:02:41.774Z,88.86
2022-11-23T05:05:09.215Z,89.05
2022-11-23T05:07:35.905Z,88.52
2022-11-23T05:10:03.294Z,88.43
2022-11-23T05:12:29.936Z,88.85
2022-11-23T05:14:58.715Z,88.93
2022-11-23T05:17:25.358Z,88.94
2022-11-23T05:19:53.517Z,88.46
2022-11-23T05:22:20.151Z,88.63
2022-11-23T05:24:46.670Z,88.54
2022-11-23T05:27:13.312Z,88.40
2022-11-23T05:29:39.914Z,88.48
2022-11-23T05:32:06.687Z,88.94
2022-11-23T05:34:33.299Z,88.42
2022-11-23T05:37:01.286Z,88.49
2022-11-23T05:39:27.822Z,88.91
2022-11-23T05:41:54.430Z,89.33
2022-11-23T05:44:21.003Z,89.21
2022-11-23T05:46:47.537Z,89.02
2022-11-23T05:49:14.094Z,89.19
2022-11-23T05:51:40.662Z,89.13
2022-11-23T05:54:08.607Z,88.98
2022-11-23T05:56:40.026Z,89.13
2022-11-23T05:59:06.953Z,89.44
2022-11-23T06:01:33.537Z,88.99
2022-11-23T06:04:00.214Z,88.90
2022-11-23T06:06:26.849Z,89.20
2022-11-23T06:08:53.408Z,89.39
2022-11-23T06:11:21.409Z,89.04
2022-11-23T06:13:48.456Z,88.77
2022-11-23T06:16:15.464Z,89.30
2022-11-23T06:18:42.063Z,89.00
2022-11-23T06:21:08.665Z,88.95
2022-11-23T06:23:35.217Z,89.19
2022-11-23T06:26:02.329Z,89.14
2022-11-23T06:28:30.291Z,89.05
2022-11-23T06:31:01.621Z,88.80
2022-11-23T06:33:28.270Z,89.08
2022-11-23T06:35:55.644Z,89.00
2022-11-23T06:38:22.220Z,88.89
2022-11-23T06:40:48.824Z,89.10
2022-11-23T06:43:15.441Z,88.79
2022-11-23T06:45:43.444Z,89.02
2022-11-23T06:48:10.072Z,88.66
2022-11-23T06:50:36.632Z,88.87
2022-11-23T06:53:03.213Z,88.96
2022-11-23T06:55:29.943Z,88.73
2022-11-23T06:57:56.890Z,88.60
2022-11-23T07:00:23.619Z,88.86
2022-11-23T07:02:55.181Z,88.73
2022-11-23T07:05:22.223Z,88.55
2022-11-23T07:07:49.111Z,88.33
2022-11-23T07:10:16.471Z,88.05
2022-11-23T07:12:43.010Z,88.11
2022-11-23T07:15:10.580Z,88.16
2022-11-23T07:17:39.259Z,87.58
2022-11-23T07:20:08.899Z,87.76
2022-11-23T07:22:35.742Z,87.41
2022-11-23T07:25:02.516Z,87.75
2022-11-23T07:27:29.313Z,87.31
2022-11-23T07:29:55.869Z,87.42
2022-11-23T07:32:22.515Z,87.71
2022-11-23T07:34:49.086Z,87.88
2022-11-23T07:37:17.069Z,87.76
2022-11-23T07:39:56.835Z,88.00
2022-11-23T07:42:33.578Z,88.10
2022-11-23T07:45:01.468Z,88.37
2022-11-23T07:47:28.107Z,88.40
2022-11-23T07:49:54.649Z,87.98
2022-11-23T07:52:23.054Z,88.13
2022-11-23T07:54:49.672Z,87.98
2022-11-23T07:57:16.307Z,87.99
2022-11-23T07:59:42.945Z,88.03
2022-11-23T08:02:10.398Z,88.43
2022-11-23T08:04:37.065Z,88.06
2022-11-23T08:07:03.724Z,88.12
2022-11-23T08:09:31.720Z,88.61
2022-11-23T08:11:58.406Z,88.72
2022-11-23T08:14:24.979Z,88.47
2022-11-23T08:16:52.269Z,88.46
2022-11-23T08:19:19.134Z,88.68
2022-11-23T08:21:46.246Z,88.82
2022-11-23T08:24:12.839Z,88.52
2022-11-23T08:26:40.848Z,88.79
2022-11-23T08:29:07.551Z,88.55
2022-11-23T08:31:34.147Z,88.75
2022-11-23T08:34:03.599Z,88.88
2022-11-23T08:36:30.493Z,89.09
2022-11-23T08:38:57.107Z,88.65
2022-11-23T08:41:23.844Z,88.65
2022-11-23T08:43:51.854Z,88.59
2022-11-23T08:46:18.469Z,88.64
2022-11-23T08:48:45.148Z,88.58
2022-11-23T08:51:11.881Z,88.94
2022-11-23T08:53:38.699Z,88.83
2022-11-23T08:56:07.427Z,88.60
2022-11-23T08:58:34.000Z,88.29
2022-11-23T09:01:01.889Z,88.09
2022-11-23T09:03:28.602Z,87.90
2022-11-23T09:05:59.702Z,87.53
2022-11-23T09:08:26.250Z,87.44
2022-11-23T09:10:52.806Z,87.62
2022-11-23T09:13:19.463Z,87.37
2022-11-23T09:15:46.014Z,86.97
2022-11-23T09:18:14.033Z,86.88
2022-11-23T09:20:40.677Z,86.49
2022-11-23T09:23:12.326Z,86.56
2022-11-23T09:25:40.704Z,86.61
2022-11-23T09:28:07.299Z,86.40
2022-11-23T09:30:33.931Z,86.11
2022-11-23T09:33:00.524Z,85.57
2022-11-23T09:35:28.600Z,85.64
2022-11-23T09:37:56.361Z,85.25
2022-11-23T09:40:23.071Z,84.97
2022-11-23T09:43:03.448Z,84.76
2022-11-23T09:45:40.665Z,84.88
2022-11-23T09:48:42.970Z,85.07
2022-11-23T09:51:15.632Z,85.14
2022-11-23T09:53:48.055Z,85.13
2022-11-23T09:56:19.021Z,85.29
2022-11-23T09:58:46.105Z,85.06
2022-11-23T10:01:15.102Z,85.18
2022-11-23T10:03:48.882Z,85.38
2022-11-23T10:06:22.399Z,85.31
2022-11-23T10:09:02.018Z,85.12
2022-11-23T10:11:44.316Z,85.29
2022-11-23T10:14:29.967Z,85.57
2022-11-23T10:17:04.920Z,85.30
2022-11-23T10:19:47.528Z,84.73
2022-11-23T10:22:22.120Z,84.36
2022-11-23T10:24:52.095Z,84.49
2022-11-23T10:27:20.603Z,84.49
2022-11-23T10:29:48.644Z,84.19
2022-11-23T10:32:30.855Z,84.40
2022-11-23T10:35:02.393Z,84.44
2022-11-23T10:37:32.057Z,84.90
2022-11-23T10:39:58.617Z,85.13
2022-11-23T10:42:32.195Z,84.62
2022-11-23T10:44:59.798Z,84.37
2022-11-23T10:47:39.001Z,83.84
2022-11-23T10:50:22.553Z,83.68
2022-11-23T10:52:56.598Z,83.58
2022-11-23T10:55:28.252Z,83.82
2022-11-23T10:57:55.442Z,83.28
2022-11-23T11:00:30.304Z,83.12
2022-11-23T11:02:58.914Z,82.95
2022-11-23T11:06:08.118Z,82.83
2022-11-23T11:08:21.662Z,82.66
2022-11-23T11:10:49.947Z,82.75
2022-11-23T11:13:29.246Z,82.60
2022-11-23T11:15:57.441Z,82.30
2022-11-23T11:18:27.504Z,82.33
2022-11-23T11:20:57.808Z,82.45
2022-11-23T11:23:26.598Z,81.54
2022-11-23T11:26:05.994Z,81.69
2022-11-23T11:28:37.294Z,81.94
2022-11-23T11:31:24.045Z,81.90
2022-11-23T11:33:57.454Z,82.06
2022-11-23T11:36:27.871Z,82.41
2022-11-23T11:39:17.548Z,82.46
2022-11-23T11:41:48.858Z,81.47
2022-11-23T11:44:21.439Z,81.45
2022-11-23T11:46:51.763Z,81.28
2022-11-23T11:49:24.213Z,81.11
2022-11-23T11:51:54.622Z,80.58
2022-11-23T11:54:29.843Z,81.48
2022-11-23T11:57:03.535Z,81.65
2022-11-23T11:59:35.580Z,81.10
2022-11-23T12:02:17.900Z,81.21
2022-11-23T12:04:54.057Z,80.95
2022-11-23T12:07:27.521Z,80.99
2022-11-23T12:09:57.288Z,80.84
2022-11-23T12:12:29.447Z,80.89
2022-11-23T12:14:57.102Z,80.47
2022-11-23T12:17:43.140Z,80.54
2022-11-23T12:20:20.596Z,80.81
2022-11-23T12:23:00.260Z,79.92
2022-11-23T12:25:32.808Z,79.80
2022-11-23T12:28:16.253Z,80.25
2022-11-23T12:30:54.311Z,80.38
2022-11-23T12:33:36.912Z,80.37
2022-11-23T12:36:24.529Z,80.50
2022-11-23T12:38:55.807Z,80.23
2022-11-23T12:41:30.738Z,80.49
2022-11-23T12:44:38.965Z,80.13
2022-11-23T12:47:17.366Z,80.41
2022-11-23T12:49:49.956Z,80.82
2022-11-23T12:52:32.031Z,80.66
2022-11-23T12:55:09.673Z,80.75
2022-11-23T12:57:42.844Z,80.55
2022-11-23T13:00:17.471Z,80.55
2022-11-23T13:03:05.708Z,80.24
2022-11-23T13:06:00.162Z,80.37
2022-11-23T13:08:48.152Z,80.17
2022-11-23T13:11:27.975Z,80.41
2022-11-23T13:14:13.432Z,80.44
2022-11-23T13:17:09.852Z,80.41
2022-11-23T13:20:07.092Z,80.09
2022-11-23T13:22:34.917Z,80.08
2022-11-23T13:25:15.042Z,80.05
2022-11-23T13:27:55.205Z,80.21
2022-11-23T13:30:32.039Z,80.13
2022-11-23T13:33:29.523Z,80.10
2022-11-23T13:36:07.146Z,80.52
2022-11-23T13:38:42.175Z,80.24
2022-11-23T13:41:54.820Z,80.00
2022-11-23T13:44:24.793Z,80.22
2022-11-23T13:47:05.739Z,80.14
2022-11-23T13:49:35.159Z,80.17
2022-11-23T13:52:24.999Z,80.20
2022-11-23T13:55:00.565Z,80.04
2022-11-23T13:57:30.940Z,80.48
2022-11-23T14:00:30.737Z,80.53
2022-11-23T14:03:31.041Z,80.58
2022-11-23T14:06:02.230Z,80.44
2022-11-23T14:08:29.468Z,80.62
2022-11-23T14:10:58.288Z,80.57
2022-11-23T14:13:28.754Z,80.19
2022-11-23T14:15:59.937Z,80.29
2022-11-23T14:19:02.215Z,79.89
2022-11-23T14:21:38.673Z,80.44
2022-11-23T14:24:33.895Z,80.58
2022-11-23T14:27:45.697Z,80.72
2022-11-23T14:30:16.866Z,80.86
2022-11-23T14:33:03.321Z,80.84
2022-11-23T14:35:33.455Z,80.73
2022-11-23T14:38:20.201Z,80.82
2022-11-23T14:40:57.772Z,80.97
2022-11-23T14:43:24.926Z,80.47
2022-11-23T14:45:51.898Z,80.81
2022-11-23T14:48:22.965Z,80.94
2022-11-23T14:50:55.583Z,80.98
2022-11-23T14:53:27.164Z,81.02
2022-11-23T14:55:54.194Z,81.14
2022-11-23T14:58:22.500Z,81.11
2022-11-23T15:00:50.081Z,81.41
2022-11-23T15:03:49.447Z,81.40
2022-11-23T15:06:10.398Z,81.86
2022-11-23T15:08:45.782Z,81.93
2022-11-23T15:11:17.033Z,82.23
2022-11-23T15:13:47.694Z,82.36
2022-11-23T15:16:16.270Z,82.47
2022-11-23T15:18:43.764Z,82.58
2022-11-23T15:21:23.919Z,82.63
2022-11-23T15:23:56.224Z,82.84
2022-11-23T15:26:46.846Z,82.75
2022-11-23T15:29:32.024Z,83.00
2022-11-23T15:34:46.147Z,82.90
2022-11-23T15:37:13.392Z,83.01
2022-11-23T15:39:42.627Z,83.25
2022-11-23T15:42:15.411Z,83.07
2022-11-23T15:44:44.956Z,83.13
2022-11-23T15:47:19.737Z,83.15
2022-11-23T15:49:46.682Z,83.28
2022-11-23T15:52:16.089Z,83.15
2022-11-23T15:54:44.993Z,83.26
2022-11-23T15:57:17.073Z,83.34
2022-11-23T15:59:46.457Z,83.12
2022-11-23T16:02:16.206Z,83.30
2022-11-23T16:04:43.830Z,83.21
2022-11-23T16:07:16.747Z,83.10
2022-11-23T16:09:53.950Z,83.14
2022-11-23T16:12:24.218Z,83.10
2022-11-23T16:14:51.233Z,83.10
2022-11-23T16:17:20.388Z,82.82
2022-11-23T16:19:48.366Z,83.16
2022-11-23T16:22:27.743Z,83.28
2022-11-23T16:25:02.863Z,83.32
2022-11-23T16:27:29.663Z,83.26
2022-11-23T16:30:01.496Z,83.13
2022-11-23T16:32:30.655Z,83.15
2022-11-23T16:35:03.013Z,83.06
2022-11-23T16:37:29.773Z,82.96
2022-11-23T16:39:57.737Z,82.64
2022-11-23T16:42:24.293Z,82.48
2022-11-23T16:44:50.847Z,82.53
2022-11-23T16:47:21.893Z,82.52
2022-11-23T16:49:49.216Z,82.22
2022-11-23T16:52:15.925Z,82.01
2022-11-23T16:54:42.541Z,82.38
2022-11-23T16:57:18.975Z,82.27
2022-11-23T16:59:46.002Z,82.99
2022-11-23T17:02:15.595Z,83.50
2022-11-23T17:04:42.910Z,83.74
2022-11-23T17:07:09.619Z,83.71
2022-11-23T17:09:36.464Z,84.29
2022-11-23T17:12:05.132Z,84.41
2022-11-23T17:14:36.944Z,84.39
2022-11-23T17:17:03.658Z,84.71
2022-11-23T17:19:30.580Z,84.59
2022-11-23T17:21:57.529Z,84.81
2022-11-23T17:24:24.126Z,84.76
2022-11-23T17:26:52.881Z,84.59
2022-11-23T17:29:20.485Z,84.76
2022-11-23T17:31:49.754Z,84.47
2022-11-23T17:34:16.834Z,84.49
2022-11-23T17:36:45.937Z,84.76
2022-11-23T17:39:18.530Z,84.56
2022-11-23T17:41:45.204Z,84.91
2022-11-23T17:44:11.832Z,84.78
2022-11-23T17:46:38.625Z,84.62
2022-11-23T17:49:11.751Z,84.43
2022-11-23T17:51:38.390Z,84.84
2022-11-23T17:54:05.064Z,84.67
2022-11-23T17:56:31.805Z,84.83
2022-11-23T17:58:58.462Z,85.13
2022-11-23T18:01:25.211Z,85.19
2022-11-23T18:03:51.867Z,85.24
2022-11-23T18:06:22.794Z,85.37
2022-11-23T18:08:51.284Z,85.28
2022-11-23T18:11:18.612Z,85.42
2022-11-23T18:13:45.343Z,85.41
2022-11-23T18:16:12.045Z,85.56
2022-11-23T18:18:38.725Z,85.18
2022-11-23T18:21:06.404Z,84.99
2022-11-23T18:23:34.354Z,84.99
2022-11-23T18:26:02.666Z,84.59
2022-11-23T18:28:29.740Z,84.70
2022-11-23T18:30:56.911Z,84.91
2022-11-23T18:33:24.114Z,85.35
2022-11-23T18:35:50.923Z,85.67
2022-11-23T18:38:17.587Z,85.66
2022-11-23T18:40:45.716Z,86.30
2022-11-23T18:43:12.406Z,86.70
2022-11-23T18:45:38.971Z,86.84
2022-11-23T18:48:06.020Z,86.32
2022-11-23T18:50:32.638Z,86.15
2022-11-23T18:52:59.276Z,86.20
2022-11-23T18:55:25.928Z,86.19
2022-11-23T18:57:54.608Z,86.50
2022-11-23T19:00:21.569Z,86.79
2022-11-23T19:02:51.873Z,87.00
2022-11-23T19:05:18.534Z,87.11
2022-11-23T19:07:45.251Z,86.89
2022-11-23T19:10:11.841Z,87.47
2022-11-23T19:12:38.522Z,87.51
2022-11-23T19:15:07.329Z,87.59
2022-11-23T19:17:34.383Z,87.89
2022-11-23T19:20:01.058Z,88.01
2022-11-23T19:22:27.812Z,88.03
2022-11-23T19:24:54.478Z,88.02
2022-11-23T19:27:21.117Z,87.98
2022-11-23T19:29:47.866Z,87.96
2022-11-23T19:32:16.100Z,87.66
2022-11-23T19:34:42.718Z,87.56
2022-11-23T19:37:09.466Z,87.66
2022-11-23T19:39:36.260Z,87.63
2022-11-23T19:42:03.340Z,87.77
2022-11-23T19:44:30.214Z,87.72
2022-11-23T19:46:56.868Z,87.34
2022-11-23T19:49:25.037Z,86.81
2022-11-23T19:51:51.666Z,86.29
2022-11-23T19:54:18.316Z,85.94
2022-11-23T19:56:44.924Z,86.63
2022-11-23T19:59:11.623Z,86.65
2022-11-23T20:01:38.459Z,87.35
2022-11-23T20:04:09.187Z,87.59
2022-11-23T20:06:40.297Z,87.58
2022-11-23T20:09:08.709Z,88.04
2022-11-23T20:11:36.527Z,88.16
2022-11-23T20:14:03.254Z,88.12
2022-11-23T20:16:32.314Z,87.73
2022-11-23T20:19:00.480Z,88.14
2022-11-23T20:21:28.283Z,88.38
2022-11-23T20:24:02.801Z,88.38
2022-11-23T20:26:31.796Z,88.86
2022-11-23T20:28:59.155Z,88.70
2022-11-23T20:31:27.337Z,89.19
2022-11-23T20:33:54.414Z,89.28
2022-11-23T20:36:22.837Z,89.25
2022-11-23T20:38:50.604Z,89.61
2022-11-23T20:41:21.593Z,89.36
2022-11-23T20:43:51.900Z,89.43
2022-11-23T20:46:38.262Z,89.97
2022-11-23T20:49:05.239Z,89.89
2022-11-23T20:51:31.950Z,89.47
2022-11-23T20:53:58.669Z,89.62
2022-11-23T20:56:27.490Z,89.87
2022-11-23T20:58:57.599Z,89.90
2022-11-23T21:01:24.269Z,89.80
2022-11-23T21:03:52.621Z,89.82
2022-11-23T21:06:19.936Z,89.70
2022-11-23T21:08:47.960Z,89.88
2022-11-23T21:11:17.905Z,89.71
2022-11-23T21:13:49.818Z,89.73
2022-11-23T21:16:16.664Z,90.04
2022-11-23T21:18:43.300Z,89.69
2022-11-23T21:21:09.907Z,89.94
2022-11-23T21:23:36.493Z,89.55
2022-11-23T21:26:03.958Z,89.51
2022-11-23T21:28:31.093Z,89.97
2022-11-23T21:31:04.764Z,89.99
2022-11-23T21:33:31.341Z,89.79
2022-11-23T21:36:01.515Z,89.87
2022-11-23T21:38:28.088Z,90.05
2022-11-23T21:40:56.658Z,90.01
2022-11-23T21:43:23.221Z,89.70
2022-11-23T21:45:59.726Z,89.22
2022-11-23T21:48:26.531Z,89.17
2022-11-23T21:50:59.151Z,88.93
2022-11-23T21:53:25.752Z,88.46
2022-11-23T21:55:52.440Z,88.67
2022-11-23T21:58:19.217Z,88.81
2022-11-23T22:00:46.397Z,88.85
2022-11-23T22:03:14.516Z,88.91
2022-11-23T22:05:41.191Z,88.76
2022-11-23T22:08:28.876Z,89.06
2022-11-23T22:10:54.687Z,89.17
2022-11-23T22:13:21.396Z,89.24
2022-11-23T22:15:48.212Z,89.04
2022-11-23T22:18:16.339Z,89.18
2022-11-23T22:20:43.061Z,89.28
2022-11-23T22:23:10.383Z,89.37
2022-11-23T22:25:37.073Z,89.19
2022-11-23T22:28:04.372Z,88.99
2022-11-23T22:30:31.081Z,88.28
2022-11-23T22:32:57.792Z,88.74
2022-11-23T22:35:25.861Z,89.27
2022-11-23T22:37:52.534Z,89.54
2022-11-23T22:40:19.208Z,90.19
2022-11-23T22:42:45.910Z,90.33
2022-11-23T22:45:12.803Z,90.31
2022-11-23T22:47:39.519Z,90.83
2022-11-23T22:50:07.311Z,90.80
2022-11-23T22:52:35.404Z,90.94
2022-11-23T22:55:02.481Z,90.95
2022-11-23T22:57:29.212Z,90.92
2022-11-23T22:59:55.874Z,91.02
2022-11-23T23:02:22.691Z,91.54
2022-11-23T23:04:49.510Z,91.48
2022-11-23T23:07:16.243Z,91.63
2022-11-23T23:09:44.394Z,91.56
2022-11-23T23:12:11.073Z,91.67
2022-11-23T23:14:37.801Z,92.07
2022-11-23T23:17:04.521Z,92.01
2022-11-23T23:19:31.273Z,92.29
2022-11-23T23:21:57.999Z,92.52
2022-11-23T23:24:24.710Z,92.71
2022-11-23T23:26:52.735Z,92.71
2022-11-23T23:29:19.439Z,92.70
2022-11-23T23:31:46.164Z,92.76
2022-11-23T23:34:12.876Z,92.44
2022-11-23T23:36:39.574Z,92.41
2022-11-23T23:39:06.284Z,92.45
2022-11-23T23:41:33.044Z,92.47
2022-11-23T23:44:01.191Z,92.73
2022-11-23T23:46:27.870Z,92.53
2022-11-23T23:48:54.670Z,92.34
2022-11-23T23:51:23.248Z,92.47
2022-11-23T23:53:50.578Z,92.31
2022-11-23T23:56:19.350Z,92.54
2022-11-23T23:58:46.326Z,92.50
